createdAt,value
2022-10-22T00:01:01.279Z,8.86
2022-10-22T00:03:39.962Z,8.86
2022-10-22T00:06:07.845Z,8.85
2022-10-22T00:08:35.063Z,8.82
2022-10-22T00:11:18.838Z,8.80
2022-10-22T00:16:19.209Z,8.77
2022-10-22T00:18:46.338Z,8.75
2022-10-22T00:21:13.422Z,8.67
2022-10-22T00:23:42.948Z,8.66
2022-10-22T00:26:10.904Z,8.69
2022-10-22T00:28:39.415Z,8.71
2022-10-22T00:31:07.087Z,8.69
2022-10-22T00:33:34.450Z,8.68
2022-10-22T00:36:02.335Z,8.67
2022-10-22T00:38:29.457Z,8.68
2022-10-22T00:40:56.599Z,8.66
2022-10-22T00:43:23.990Z,8.65
2022-10-22T00:45:51.010Z,8.64
2022-10-22T00:48:31.422Z,8.63
2022-10-22T00:51:08.025Z,8.62
2022-10-22T00:53:47.609Z,8.60
2022-10-22T00:56:15.226Z,8.59
2022-10-22T00:58:49.128Z,8.58
2022-10-22T01:01:22.875Z,8.58
2022-10-22T01:03:50.715Z,8.57
2022-10-22T01:06:32.130Z,8.55
2022-10-22T01:09:20.374Z,8.54
2022-10-22T01:12:06.005Z,8.52
2022-10-22T01:15:17.924Z,8.51
2022-10-22T01:18:15.659Z,8.51
2022-10-22T01:21:15.718Z,8.50
2022-10-22T01:24:20.038Z,8.47
2022-10-22T01:27:11.475Z,8.47
2022-10-22T01:30:05.475Z,8.45
2022-10-22T01:32:50.632Z,8.45
2022-10-22T01:35:45.347Z,8.41
2022-10-22T01:38:22.338Z,8.39
2022-10-22T01:40:51.726Z,8.38
2022-10-22T01:43:19.232Z,8.35
2022-10-22T01:45:56.122Z,8.32
2022-10-22T01:49:11.890Z,8.29
2022-10-22T01:52:18.665Z,8.25
2022-10-22T01:55:03.049Z,8.24
2022-10-22T01:57:47.724Z,8.21
2022-10-22T02:00:18.933Z,8.17
2022-10-22T02:03:10.030Z,8.14
2022-10-22T02:05:53.988Z,8.10
2022-10-22T02:08:27.142Z,8.08
2022-10-22T02:10:57.410Z,8.05
2022-10-22T02:13:56.830Z,8.04
2022-10-22T02:16:47.689Z,8.01
2022-10-22T02:19:42.890Z,7.97
2022-10-22T02:22:10.993Z,7.95
2022-10-22T02:24:38.526Z,7.93
2022-10-22T02:27:47.101Z,7.89
2022-10-22T02:30:20.552Z,7.89
2022-10-22T02:33:21.065Z,7.87
2022-10-22T02:35:51.118Z,7.83
2022-10-22T02:38:19.957Z,7.82
2022-10-22T02:40:47.349Z,7.79
2022-10-22T02:43:14.844Z,7.78
2022-10-22T02:45:41.868Z,7.75
2022-10-22T02:48:09.272Z,7.73
2022-10-22T02:50:37.674Z,7.71
2022-10-22T02:53:04.769Z,7.71
2022-10-22T02:55:31.944Z,7.66
2022-10-22T02:57:59.320Z,7.65
2022-10-22T03:00:26.599Z,7.58
2022-10-22T03:02:53.756Z,7.58
2022-10-22T03:05:21.331Z,7.57
2022-10-22T03:07:48.442Z,7.54
2022-10-22T03:10:15.690Z,7.51
2022-10-22T03:12:42.954Z,7.52
2022-10-22T03:15:10.453Z,7.48
2022-10-22T03:17:38.086Z,7.46
2022-10-22T03:20:06.890Z,7.45
2022-10-22T03:22:38.282Z,7.43
2022-10-22T03:25:12.589Z,7.42
2022-10-22T03:27:41.707Z,7.39
2022-10-22T03:30:10.482Z,7.38
2022-10-22T03:32:37.622Z,7.36
2022-10-22T03:35:06.255Z,7.31
2022-10-22T03:37:35.699Z,7.29
2022-10-22T03:40:07.824Z,7.26
2022-10-22T03:42:35.517Z,7.23
2022-10-22T03:45:02.482Z,7.21
2022-10-22T03:47:29.749Z,7.21
2022-10-22T03:49:57.171Z,7.19
2022-10-22T03:52:24.445Z,7.16
2022-10-22T03:54:51.681Z,7.15
2022-10-22T03:57:18.942Z,7.08
2022-10-22T03:59:46.610Z,7.04
2022-10-22T04:02:14.618Z,7.02
2022-10-22T04:04:42.014Z,7.01
2022-10-22T04:07:09.233Z,6.97
2022-10-22T04:09:36.521Z,6.94
2022-10-22T04:12:09.462Z,6.93
2022-10-22T04:14:36.607Z,6.91
2022-10-22T04:17:05.154Z,6.89
2022-10-22T04:19:33.260Z,6.88
2022-10-22T04:22:01.009Z,6.85
2022-10-22T04:24:31.375Z,6.84
2022-10-22T04:26:59.489Z,6.82
2022-10-22T04:29:26.887Z,6.81
2022-10-22T04:31:54.317Z,6.80
2022-10-22T04:34:21.594Z,6.79
2022-10-22T04:36:48.747Z,6.75
2022-10-22T04:39:15.708Z,6.74
2022-10-22T04:41:43.244Z,6.74
2022-10-22T04:44:13.671Z,6.73
2022-10-22T04:46:44.537Z,6.72
2022-10-22T04:49:11.733Z,6.69
2022-10-22T04:51:38.934Z,6.68
2022-10-22T04:54:06.162Z,6.65
2022-10-22T04:56:33.492Z,6.64
2022-10-22T04:59:04.602Z,6.62
2022-10-22T05:01:42.964Z,6.64
2022-10-22T05:04:15.238Z,6.64
2022-10-22T05:06:43.429Z,6.63
2022-10-22T05:09:18.321Z,6.61
2022-10-22T05:11:49.681Z,6.59
2022-10-22T05:14:21.671Z,6.58
2022-10-22T05:16:50.166Z,6.56
2022-10-22T05:19:25.239Z,6.55
2022-10-22T05:21:56.598Z,6.55
2022-10-22T05:24:24.578Z,6.53
2022-10-22T05:26:53.650Z,6.52
2022-10-22T05:29:22.444Z,6.52
2022-10-22T05:31:49.775Z,6.53
2022-10-22T05:34:17.601Z,6.51
2022-10-22T05:36:45.325Z,6.49
2022-10-22T05:39:12.495Z,6.47
2022-10-22T05:41:39.953Z,6.46
2022-10-22T05:44:07.148Z,6.44
2022-10-22T05:46:36.297Z,6.45
2022-10-22T05:49:06.654Z,6.45
2022-10-22T05:51:36.836Z,6.44
2022-10-22T05:54:07.785Z,6.43
2022-10-22T05:56:37.361Z,6.41
2022-10-22T05:59:04.780Z,6.41
2022-10-22T06:01:35.494Z,6.40
2022-10-22T06:04:06.847Z,6.40
2022-10-22T06:06:37.253Z,6.43
2022-10-22T06:09:22.420Z,6.41
2022-10-22T06:11:50.874Z,6.41
2022-10-22T06:14:19.467Z,6.42
2022-10-22T06:16:47.160Z,6.47
2022-10-22T06:19:17.340Z,6.49
2022-10-22T06:21:45.808Z,6.53
2022-10-22T06:24:13.510Z,6.62
2022-10-22T06:26:41.806Z,6.67
2022-10-22T06:29:09.822Z,6.76
2022-10-22T06:31:37.149Z,6.84
2022-10-22T06:34:08.637Z,6.95
2022-10-22T06:36:37.033Z,6.97
2022-10-22T06:39:05.575Z,6.92
2022-10-22T06:41:33.019Z,6.98
2022-10-22T06:44:00.265Z,7.10
2022-10-22T06:46:28.452Z,7.25
2022-10-22T06:49:03.080Z,7.37
2022-10-22T06:51:30.567Z,7.44
2022-10-22T06:53:59.236Z,7.46
2022-10-22T06:56:29.376Z,7.50
2022-10-22T06:58:58.610Z,7.51
2022-10-22T07:01:33.181Z,7.57
2022-10-22T07:04:00.929Z,7.65
2022-10-22T07:06:29.672Z,7.73
2022-10-22T07:08:59.746Z,7.84
2022-10-22T07:11:32.781Z,7.91
2022-10-22T07:14:00.385Z,8.01
2022-10-22T07:16:31.309Z,8.18
2022-10-22T07:19:04.448Z,8.36
2022-10-22T07:21:32.270Z,8.48
2022-10-22T07:23:59.645Z,8.70
2022-10-22T07:26:31.245Z,8.90
2022-10-22T07:29:01.250Z,9.11
2022-10-22T07:31:29.273Z,9.28
2022-10-22T07:33:57.568Z,9.42
2022-10-22T07:36:25.207Z,9.52
2022-10-22T07:39:00.275Z,9.58
2022-10-22T07:41:30.155Z,9.63
2022-10-22T07:43:58.956Z,9.72
2022-10-22T07:46:26.849Z,9.77
2022-10-22T07:48:54.991Z,9.83
2022-10-22T07:51:23.499Z,9.88
2022-10-22T07:53:50.681Z,9.95
2022-10-22T07:56:18.168Z,10.04
2022-10-22T07:58:45.212Z,10.10
2022-10-22T08:01:12.540Z,10.16
2022-10-22T08:03:40.117Z,10.19
2022-10-22T08:06:07.710Z,10.25
2022-10-22T08:08:34.839Z,10.32
2022-10-22T08:11:02.388Z,10.36
2022-10-22T08:13:32.825Z,10.39
2022-10-22T08:16:01.242Z,10.44
2022-10-22T08:18:29.815Z,10.49
2022-10-22T08:20:58.054Z,10.58
2022-10-22T08:23:28.323Z,10.64
2022-10-22T08:25:57.329Z,10.67
2022-10-22T08:28:24.744Z,10.72
2022-10-22T08:30:51.955Z,10.77
2022-10-22T08:33:19.347Z,10.84
2022-10-22T08:35:51.770Z,10.91
2022-10-22T08:38:20.255Z,11.00
2022-10-22T08:40:54.138Z,11.07
2022-10-22T08:43:37.837Z,11.14
2022-10-22T08:46:40.375Z,11.22
2022-10-22T08:49:20.652Z,11.27
2022-10-22T08:51:48.521Z,11.32
2022-10-22T08:54:50.993Z,11.36
2022-10-22T08:58:06.900Z,11.42
2022-10-22T09:00:41.121Z,11.44
2022-10-22T09:03:49.947Z,11.46
2022-10-22T09:06:31.555Z,11.48
2022-10-22T09:09:02.465Z,11.51
2022-10-22T09:11:38.830Z,11.55
2022-10-22T09:14:09.207Z,11.60
2022-10-22T09:16:36.393Z,11.66
2022-10-22T09:19:24.517Z,11.74
2022-10-22T09:22:31.803Z,11.82
2022-10-22T09:25:23.995Z,11.92
2022-10-22T09:27:58.345Z,12.02
2022-10-22T09:30:30.660Z,12.09
2022-10-22T09:33:06.952Z,12.15
2022-10-22T09:35:51.110Z,12.22
2022-10-22T09:38:39.462Z,12.27
2022-10-22T09:41:09.101Z,12.33
2022-10-22T09:43:36.909Z,12.36
2022-10-22T09:46:14.249Z,12.39
2022-10-22T09:48:48.510Z,12.43
2022-10-22T09:51:22.275Z,12.45
2022-10-22T09:53:59.982Z,12.48
2022-10-22T09:56:43.336Z,12.49
2022-10-22T09:59:19.146Z,12.50
2022-10-22T10:01:47.077Z,12.54
2022-10-22T10:04:16.514Z,12.54
2022-10-22T10:06:45.148Z,12.49
2022-10-22T10:09:35.336Z,12.47
2022-10-22T10:12:36.597Z,12.49
2022-10-22T10:15:36.501Z,12.46
2022-10-22T10:18:24.356Z,12.46
2022-10-22T10:24:00.680Z,12.49
2022-10-22T10:26:45.988Z,12.52
2022-10-22T10:29:43.793Z,12.58
2022-10-22T10:32:45.082Z,12.60
2022-10-22T10:36:03.273Z,12.63
2022-10-22T10:38:40.647Z,12.66
2022-10-22T10:41:18.298Z,12.67
2022-10-22T10:44:14.170Z,12.68
2022-10-22T10:47:11.377Z,12.69
2022-10-22T10:49:38.381Z,12.70
2022-10-22T10:52:45.098Z,12.72
2022-10-22T10:55:22.399Z,12.73
2022-10-22T10:57:59.893Z,12.73
2022-10-22T11:00:36.471Z,12.72
2022-10-22T11:03:45.666Z,12.71
2022-10-22T11:06:19.411Z,12.69
2022-10-22T11:09:07.407Z,12.68
2022-10-22T11:11:48.817Z,12.66
2022-10-22T11:14:30.020Z,12.65
2022-10-22T11:17:18.087Z,12.62
2022-10-22T11:20:25.483Z,12.61
2022-10-22T11:23:21.672Z,12.60
2022-10-22T11:25:50.704Z,12.57
2022-10-22T11:28:28.799Z,12.54
2022-10-22T11:31:10.529Z,12.52
2022-10-22T11:33:48.797Z,12.47
2022-10-22T11:36:21.984Z,12.46
2022-10-22T11:38:50.032Z,12.41
2022-10-22T11:41:24.682Z,12.40
2022-10-22T11:44:22.598Z,12.38
2022-10-22T11:47:08.353Z,12.35
2022-10-22T11:49:56.183Z,12.33
2022-10-22T11:52:41.626Z,12.32
2022-10-22T11:55:45.430Z,12.28
2022-10-22T11:58:39.499Z,12.26
2022-10-22T12:01:09.587Z,12.23
2022-10-22T12:03:44.851Z,12.22
2022-10-22T12:06:19.782Z,12.21
2022-10-22T12:08:53.436Z,12.21
2022-10-22T12:11:47.773Z,12.20
2022-10-22T12:14:34.481Z,12.18
2022-10-22T12:17:14.871Z,12.18
2022-10-22T12:20:02.448Z,12.17
2022-10-22T12:22:37.667Z,12.17
2022-10-22T12:25:24.020Z,12.17
2022-10-22T12:27:58.750Z,12.18
2022-10-22T12:30:30.941Z,12.19
2022-10-22T12:33:03.491Z,12.19
2022-10-22T12:35:41.681Z,12.21
2022-10-22T12:38:20.355Z,12.21
2022-10-22T12:40:50.202Z,12.23
2022-10-22T12:43:29.803Z,12.24
2022-10-22T12:45:59.582Z,12.25
2022-10-22T12:48:42.371Z,12.24
2022-10-22T12:51:18.313Z,12.26
2022-10-22T12:53:53.634Z,12.28
2022-10-22T12:56:29.278Z,12.28
2022-10-22T12:59:15.058Z,12.30
2022-10-22T13:01:43.604Z,12.30
2022-10-22T13:04:23.179Z,12.31
2022-10-22T13:07:04.758Z,12.31
2022-10-22T13:09:59.693Z,12.31
2022-10-22T13:12:35.731Z,12.32
2022-10-22T13:15:36.343Z,12.31
2022-10-22T13:18:07.561Z,12.30
2022-10-22T13:20:37.402Z,12.32
2022-10-22T13:23:06.062Z,12.31
2022-10-22T13:25:39.538Z,12.29
2022-10-22T13:28:21.665Z,12.29
2022-10-22T13:31:00.876Z,12.28
2022-10-22T13:33:42.062Z,12.29
2022-10-22T13:36:15.658Z,12.29
2022-10-22T13:38:45.250Z,12.28
2022-10-22T13:41:26.094Z,12.30
2022-10-22T13:43:54.882Z,12.27
2022-10-22T13:46:24.165Z,12.27
2022-10-22T13:48:55.198Z,12.27
2022-10-22T13:51:29.327Z,12.26
2022-10-22T13:53:57.401Z,12.25
2022-10-22T13:56:24.506Z,12.26
2022-10-22T13:58:52.078Z,12.25
2022-10-22T14:01:27.419Z,12.23
2022-10-22T14:03:59.748Z,12.23
2022-10-22T14:06:31.622Z,12.23
2022-10-22T14:09:05.224Z,12.22
2022-10-22T14:11:32.703Z,12.20
2022-10-22T14:14:00.008Z,12.20
2022-10-22T14:16:31.219Z,12.20
2022-10-22T14:19:00.562Z,12.19
2022-10-22T14:21:37.384Z,12.18
2022-10-22T14:24:08.238Z,12.17
2022-10-22T14:26:37.916Z,12.15
2022-10-22T14:29:09.192Z,12.15
2022-10-22T14:31:43.229Z,12.14
2022-10-22T14:34:14.778Z,12.14
2022-10-22T14:36:43.853Z,12.12
2022-10-22T14:39:12.858Z,12.11
2022-10-22T14:41:41.730Z,12.12
2022-10-22T14:44:14.064Z,12.12
2022-10-22T14:46:43.914Z,12.10
2022-10-22T14:49:11.321Z,12.09
2022-10-22T14:51:38.709Z,12.06
2022-10-22T14:54:06.139Z,12.06
2022-10-22T14:56:33.111Z,12.05
2022-10-22T14:59:00.261Z,12.04
2022-10-22T15:01:28.507Z,12.03
2022-10-22T15:03:55.793Z,12.02
2022-10-22T15:06:22.857Z,12.01
2022-10-22T15:08:50.805Z,12.01
2022-10-22T15:11:17.981Z,12.00
2022-10-22T15:13:45.319Z,12.00
2022-10-22T15:16:15.274Z,11.98
2022-10-22T15:18:42.812Z,11.98
2022-10-22T15:21:18.568Z,11.97
2022-10-22T15:23:45.969Z,11.96
2022-10-22T15:26:14.199Z,11.96
2022-10-22T15:28:42.566Z,11.93
2022-10-22T15:31:14.267Z,11.94
2022-10-22T15:33:43.663Z,11.93
2022-10-22T15:36:16.291Z,11.92
2022-10-22T15:38:44.167Z,11.91
2022-10-22T15:41:13.412Z,11.89
2022-10-22T15:43:40.781Z,11.87
2022-10-22T15:46:15.481Z,11.88
2022-10-22T15:48:43.834Z,11.88
2022-10-22T15:51:17.609Z,11.87
2022-10-22T15:53:52.921Z,11.85
2022-10-22T15:56:20.091Z,11.85
2022-10-22T15:58:47.605Z,11.84
2022-10-22T16:01:14.913Z,11.84
2022-10-22T16:03:42.364Z,11.82
2022-10-22T16:06:09.705Z,11.82
2022-10-22T16:08:38.181Z,11.81
2022-10-22T16:11:05.692Z,11.80
2022-10-22T16:13:33.049Z,11.80
2022-10-22T16:16:06.973Z,11.80
2022-10-22T16:18:34.243Z,11.80
2022-10-22T16:21:03.384Z,11.79
2022-10-22T16:23:30.599Z,11.79
2022-10-22T16:26:02.443Z,11.77
2022-10-22T16:28:29.742Z,11.76
2022-10-22T16:30:57.243Z,11.76
2022-10-22T16:33:24.726Z,11.76
2022-10-22T16:35:51.727Z,11.74
2022-10-22T16:38:19.005Z,11.74
2022-10-22T16:40:46.186Z,11.73
2022-10-22T16:43:13.351Z,11.73
2022-10-22T16:45:49.136Z,11.73
2022-10-22T16:48:18.718Z,11.73
2022-10-22T16:50:45.822Z,11.73
2022-10-22T16:53:13.254Z,11.72
2022-10-22T16:55:41.312Z,11.72
2022-10-22T16:58:08.501Z,11.71
2022-10-22T17:00:36.667Z,11.72
2022-10-22T17:03:04.278Z,11.72
2022-10-22T17:05:31.700Z,11.70
2022-10-22T17:07:58.798Z,11.69
2022-10-22T17:10:26.525Z,11.69
2022-10-22T17:12:53.770Z,11.68
2022-10-22T17:15:20.909Z,11.68
2022-10-22T17:17:52.468Z,11.67
2022-10-22T17:20:20.354Z,11.66
2022-10-22T17:22:49.801Z,11.66
2022-10-22T17:25:24.581Z,11.65
2022-10-22T17:27:53.965Z,11.65
2022-10-22T17:30:24.806Z,11.66
2022-10-22T17:32:55.160Z,11.65
2022-10-22T17:35:22.602Z,11.65
2022-10-22T17:37:49.771Z,11.64
2022-10-22T17:40:17.145Z,11.64
2022-10-22T17:42:45.379Z,11.63
2022-10-22T17:45:12.479Z,11.63
2022-10-22T17:47:40.455Z,11.62
2022-10-22T17:50:08.722Z,11.63
2022-10-22T17:52:36.312Z,11.62
2022-10-22T17:55:04.537Z,11.62
2022-10-22T17:57:31.825Z,11.62
2022-10-22T17:59:58.810Z,11.62
2022-10-22T18:02:26.239Z,11.62
2022-10-22T18:04:53.279Z,11.62
2022-10-22T18:07:21.025Z,11.61
2022-10-22T18:09:48.623Z,11.62
2022-10-22T18:12:17.992Z,11.62
2022-10-22T18:14:47.006Z,11.62
2022-10-22T18:17:16.063Z,11.62
2022-10-22T18:19:43.131Z,11.61
2022-10-22T18:22:10.482Z,11.61
2022-10-22T18:24:38.930Z,11.61
2022-10-22T18:27:06.618Z,11.61
2022-10-22T18:29:33.850Z,11.60
2022-10-22T18:32:01.210Z,11.59
2022-10-22T18:34:30.252Z,11.61
2022-10-22T18:36:58.234Z,11.62
2022-10-22T18:39:26.055Z,11.61
2022-10-22T18:41:53.345Z,11.61
2022-10-22T18:44:20.351Z,11.63
2022-10-22T18:46:47.917Z,11.64
2022-10-22T18:49:18.935Z,11.64
2022-10-22T18:51:52.418Z,11.64
2022-10-22T18:54:23.595Z,11.63
2022-10-22T18:56:55.521Z,11.64
2022-10-22T18:59:26.914Z,11.64
2022-10-22T19:01:57.679Z,11.64
2022-10-22T19:04:25.094Z,11.63
2022-10-22T19:06:52.639Z,11.65
2022-10-22T19:09:20.049Z,11.66
2022-10-22T19:11:47.541Z,11.67
2022-10-22T19:14:19.541Z,11.66
2022-10-22T19:16:47.189Z,11.66
2022-10-22T19:19:18.851Z,11.67
2022-10-22T19:21:47.413Z,11.67
2022-10-22T19:24:17.682Z,11.67
2022-10-22T19:26:46.867Z,11.67
2022-10-22T19:29:17.963Z,11.67
2022-10-22T19:31:46.051Z,11.67
2022-10-22T19:34:14.201Z,11.66
2022-10-22T19:36:42.176Z,11.67
2022-10-22T19:39:09.341Z,11.67
2022-10-22T19:41:37.055Z,11.67
2022-10-22T19:44:04.700Z,11.68
2022-10-22T19:46:32.661Z,11.67
2022-10-22T19:49:02.809Z,11.67
2022-10-22T19:51:34.446Z,11.67
2022-10-22T19:54:15.663Z,11.68
2022-10-22T19:56:43.346Z,11.68
2022-10-22T19:59:10.490Z,11.69
2022-10-22T20:01:38.058Z,11.70
2022-10-22T20:04:05.790Z,11.70
2022-10-22T20:06:33.254Z,11.68
2022-10-22T20:09:00.293Z,11.68
2022-10-22T20:11:30.058Z,11.69
2022-10-22T20:13:58.931Z,11.68
2022-10-22T20:16:29.943Z,11.68
2022-10-22T20:19:06.123Z,11.67
2022-10-22T20:21:34.942Z,11.66
2022-10-22T20:24:02.976Z,11.66
2022-10-22T20:26:31.661Z,11.66
2022-10-22T20:28:59.452Z,11.67
2022-10-22T20:31:29.589Z,11.65
2022-10-22T20:33:59.512Z,11.65
2022-10-22T20:36:29.359Z,11.65
2022-10-22T20:39:06.329Z,11.66
2022-10-22T20:41:37.663Z,11.66
2022-10-22T20:44:06.082Z,11.67
2022-10-22T20:46:35.530Z,11.68
2022-10-22T20:49:08.766Z,11.68
2022-10-22T20:51:37.551Z,11.66
2022-10-22T20:54:07.459Z,11.66
2022-10-22T20:56:37.888Z,11.68
2022-10-22T20:59:05.873Z,11.65
2022-10-22T21:01:39.122Z,11.65
2022-10-22T21:04:07.769Z,11.63
2022-10-22T21:06:38.146Z,11.62
2022-10-22T21:09:11.601Z,11.58
2022-10-22T21:11:40.946Z,11.57
2022-10-22T21:14:10.997Z,11.56
2022-10-22T21:16:46.119Z,11.55
2022-10-22T21:19:13.332Z,11.54
2022-10-22T21:21:41.067Z,11.54
2022-10-22T21:24:08.870Z,11.51
2022-10-22T21:26:38.446Z,11.50
2022-10-22T21:29:05.693Z,11.49
2022-10-22T21:31:33.422Z,11.49
2022-10-22T21:34:01.127Z,11.48
2022-10-22T21:36:28.514Z,11.47
2022-10-22T21:38:55.621Z,11.47
2022-10-22T21:41:24.452Z,11.45
2022-10-22T21:43:51.869Z,11.47
2022-10-22T21:46:23.555Z,11.48
2022-10-22T21:49:03.262Z,11.49
2022-10-22T21:51:35.204Z,11.50
2022-10-22T21:54:02.507Z,11.49
2022-10-22T21:56:35.553Z,11.51
2022-10-22T21:59:05.646Z,11.51
2022-10-22T22:01:33.841Z,11.50
2022-10-22T22:04:01.634Z,11.50
2022-10-22T22:06:33.360Z,11.52
2022-10-22T22:09:03.225Z,11.54
2022-10-22T22:11:31.043Z,11.54
2022-10-22T22:13:59.141Z,11.54
2022-10-22T22:16:30.945Z,11.55
2022-10-22T22:19:08.919Z,11.56
2022-10-22T22:21:39.627Z,11.56
2022-10-22T22:24:09.544Z,11.57
2022-10-22T22:26:37.381Z,11.58
2022-10-22T22:29:04.851Z,11.58
2022-10-22T22:31:34.853Z,11.58
2022-10-22T22:34:13.695Z,11.60
2022-10-22T22:36:45.889Z,11.60
2022-10-22T22:39:25.248Z,11.60
2022-10-22T22:41:52.894Z,11.61
2022-10-22T22:44:19.903Z,11.61
2022-10-22T22:46:47.114Z,11.62
2022-10-22T22:49:14.720Z,11.61
2022-10-22T22:51:43.394Z,11.62
2022-10-22T22:54:11.134Z,11.62
2022-10-22T22:56:38.707Z,11.63
2022-10-22T22:59:06.313Z,11.63
2022-10-22T23:01:37.056Z,11.64
2022-10-22T23:04:12.260Z,11.63
2022-10-22T23:06:40.126Z,11.64
2022-10-22T23:09:10.604Z,11.63
2022-10-22T23:11:39.129Z,11.64
2022-10-22T23:14:08.288Z,11.65
2022-10-22T23:16:40.053Z,11.64
2022-10-22T23:19:07.313Z,11.66
2022-10-22T23:21:38.830Z,11.66
2022-10-22T23:24:11.129Z,11.67
2022-10-22T23:26:42.529Z,11.67
2022-10-22T23:29:23.412Z,11.67
2022-10-22T23:31:52.036Z,11.67
2022-10-22T23:34:23.939Z,11.67
2022-10-22T23:36:52.022Z,11.69
2022-10-22T23:39:23.474Z,11.68
2022-10-22T23:41:53.142Z,11.68
2022-10-22T23:44:22.122Z,11.69
2022-10-22T23:46:50.145Z,11.69
2022-10-22T23:49:17.953Z,11.70
2022-10-22T23:51:45.565Z,11.70
2022-10-22T23:54:16.050Z,11.71
2022-10-22T23:56:44.191Z,11.71
2022-10-22T23:59:11.767Z,11.72
